Detalii statie SOMALEX GHIMPATI [0000198E]

Toti senzorii

Date Temperatura solului [C]Precipitatii [mm]Voltaj baterie [mV]Leaf Wetness [Min]HC Air temperature [C]HC Relative humidity [%]Punctul de roua [C]
medieminmaxsumaultimatimpmedieminmaxmediemediemin
2019-06-15 18:00:00 25.5 25.5 25.5 0 6854 23 22.79 23.22 100 22.9 22.7
2019-06-15 18:10:00 25.4 25.4 25.5 0 6826 22.52 22.43 22.61 100 22.5 22.4
2019-06-15 18:20:00 25.4 25.2 25.6 0 6844 22.34 22.28 22.4 100 22.3 22.2
2019-06-15 18:30:00 25.3 25.3 25.4 0.2 6844 22.38 22.35 22.42 100 22.3 22.3
2019-06-15 18:40:00 25.2 25.1 25.3 0.2 6854 22.06 21.91 22.21 100 22 21.9
2019-06-15 18:50:00 25 24.9 25.2 0 6844 21.52 21.44 21.61 100 21.5 21.4
2019-06-15 19:00:00 25 25 25 0.2 6844 21.54 21.51 21.58 100 21.5 21.5
2019-06-15 19:10:00 24.9 24.9 25 0 6816 21.53 21.46 21.61 100 21.5 21.4
2019-06-15 19:20:00 24.9 24.9 25 0.2 6834 21.42 21.4 21.44 100 21.4 21.4
2019-06-15 19:30:00 24.8 24.7 24.9 0.2 6844 21.42 21.41 21.43 100 21.4 21.4
2019-06-15 19:40:00 24.7 24.6 24.8 0 6834 21.26 21.17 21.36 100 21.2 21.1
2019-06-15 19:50:00 24.7 24.7 24.8 0 6844 21.17 21.14 21.2 100 21.1 21.1
2019-06-15 20:00:00 24.7 24.6 24.8 0 6834 21.14 21.14 21.14 100 21.1 21.1
2019-06-15 20:10:00 24.6 24.6 24.6 0 6806 21.05 20.97 21.13 100 21 20.9
2019-06-15 20:20:00 24.4 24.3 24.6 0 6834 20.92 20.92 20.93 100 20.9 20.9
2019-06-15 20:30:00 24.5 24.5 24.5 0 6834 20.79 20.75 20.83 100 20.7 20.7
2019-06-15 20:40:00 24.2 24.2 24.3 0 6834 20.67 20.65 20.69 100 20.6 20.6
2019-06-15 20:50:00 24.3 24.3 24.4 0 6844 20.84 20.71 20.98 100 20.8 20.7
2019-06-15 21:00:00 24.3 24.2 24.4 0 6834 20.86 20.77 20.96 100 20.8 20.7
2019-06-15 21:10:00 24.2 24.2 24.2 0 6806 20.78 20.75 20.81 100 20.7 20.7
2019-06-15 21:20:00 24.2 24.2 24.2 0 6826 21 20.98 21.03 100 20.9 20.9
2019-06-15 21:30:00 24 23.9 24.2 0 6834 21.01 20.95 21.07 100 20.9 20.9
2019-06-15 21:40:00 24.1 24.1 24.1 0 6834 20.86 20.85 20.87 100 20.8 20.8
2019-06-15 21:50:00 23.9 23.9 23.9 0 6834 20.82 20.77 20.87 100 20.7 20.7
2019-06-15 22:00:00 23.9 23.9 23.9 0 6834 20.57 20.53 20.61 100 20.5 20.5
2019-06-15 22:10:00 23.9 23.8 24 0 6796 20.35 20.29 20.41 100 20.3 20.2
2019-06-15 22:20:00 23.8 23.7 24 0 6826 20.14 20.13 20.16 100 20.1 20.1
2019-06-15 22:30:00 23.8 23.8 23.8 0 6826 20.02 20.02 20.02 100 20 20
2019-06-15 22:40:00 23.7 23.7 23.8 0 6826 19.98 19.96 20.01 100 19.9 19.9
2019-06-15 22:50:00 23.6 23.6 23.7 0 6834 19.99 19.99 20 100 19.9 19.9
2019-06-15 23:00:00 23.7 23.7 23.7 0 6834 19.94 19.91 19.98 100 19.9 19.9
2019-06-15 23:10:00 23.5 23.5 23.6 0 6786 19.83 19.83 19.84 100 19.8 19.8
2019-06-15 23:20:00 23.5 23.5 23.6 0 6816 19.95 19.94 19.96 100 19.9 19.9
2019-06-15 23:30:00 23.5 23.4 23.6 0 6816 19.91 19.91 19.92 100 19.9 19.9
2019-06-15 23:40:00 23.4 23.4 23.4 0 6816 19.92 19.92 19.93 100 19.9 19.9
2019-06-15 23:50:00 23.4 23.4 23.5 0 6826 20.02 19.97 20.07 100 19.9 19.9
2019-06-16 00:00:00 23.3 23.2 23.4 0 6826 20.12 20.11 20.14 100 20.1 20.1
2019-06-16 00:10:00 23.3 23.2 23.4 0 6756 20.08 20.08 20.08 100 20 20
2019-06-16 00:20:00 23.3 23.3 23.3 0 6796 20 19.99 20.02 100 19.9 19.9
2019-06-16 00:30:00 23.2 23.1 23.3 0 6796 19.89 19.85 19.93 100 19.8 19.8
2019-06-16 00:40:00 23.2 23.2 23.2 0 6816 19.8 19.78 19.82 100 19.7 19.7
2019-06-16 00:50:00 23.1 23 23.2 0 6816 19.79 19.79 19.8 100 19.7 19.7
2019-06-16 01:00:00 23.1 23 23.2 0 6816 19.74 19.71 19.78 100 19.7 19.7
2019-06-16 01:10:00 23.1 23 23.2 0 6776 19.59 19.57 19.62 100 19.5 19.5
2019-06-16 01:20:00 23 23 23.1 0 6796 19.35 19.26 19.44 100 19.3 19.2
2019-06-16 01:30:00 23 23 23.1 0 6796 19.29 19.21 19.38 100 19.2 19.2
2019-06-16 01:40:00 23 22.9 23.1 0 6806 19.44 19.42 19.46 100 19.4 19.4
2019-06-16 01:50:00 22.7 22.5 22.9 0 6806 19.43 19.39 19.47 100 19.3 19.3